Time;durP1;ratioP1;P1;durP2;ratioP2;P2;SDS_P1;SDS_P2;PMS_P1;PMS_P2;Temp;Humidity;BMP_temperature;BMP_pressure;BME280_temperature;BME280_humidity;BME280_pressure;Samples;Min_cycle;Max_cycle;Signal;HPM_P1;HPM_P2
2023/03/08 00:00:59;;;;;;;;;;;;;;;7.91;74.50;98912.59;5094562;28;19919;-36
2023/03/08 00:03:24;;;;;;;;;;;;;;;7.95;75.05;98919.09;5094470;28;19912;-37
2023/03/08 00:05:49;;;;;;;;;;;;;;;8.11;74.45;98916.00;5094422;28;19989;-37
2023/03/08 00:08:15;;;;;;;;;;;;;;;7.95;75.12;98919.09;5094394;28;19961;-36
2023/03/08 00:10:41;;;;;;;;;;;;;;;8.05;74.52;98921.31;5094282;28;20014;-37
2023/03/08 00:13:06;;;;;;;;;;;;;;;8.09;73.24;98928.66;5094181;28;20413;-38
2023/03/08 00:15:31;;;;;;;;;;;;;;;8.12;72.56;98920.28;5094206;28;19912;-36
2023/03/08 00:17:56;;;;;;;;;;;;;;;7.94;73.71;98920.94;5093938;28;19919;-37
2023/03/08 00:20:22;;;;;;;;;;;;;;;7.88;72.73;98920.94;5094099;28;19935;-37
2023/03/08 00:22:47;;;;;;;;;;;;;;;7.69;74.06;98920.75;5094012;28;19931;-37
2023/03/08 00:25:15;;;;;;;;;;;;;;;7.71;73.40;98918.72;5094171;28;19912;-37
2023/03/08 00:27:40;;;;;;;;;;;;;;;7.49;74.64;98925.25;5094313;28;19923;-36
2023/03/08 00:30:06;;;;;;;;;;;;;;;7.54;74.37;98923.63;5094070;28;19916;-36
2023/03/08 00:32:31;;;;;;;;;;;;;;;7.44;75.06;98925.84;5094285;28;19962;-37
2023/03/08 00:34:57;;;;;;;;;;;;;;;7.36;75.65;98918.09;5093863;28;19912;-37
2023/03/08 00:37:22;;;;;;;;;;;;;;;7.48;74.21;98919.09;5094018;28;19974;-37
2023/03/08 00:39:49;;;;;;;;;;;;;;;7.49;76.70;98917.28;5093823;28;20376;-37
2023/03/08 00:42:15;;;;;;;;;;;;;;;7.68;75.25;98916.47;5093928;28;19912;-37
2023/03/08 00:44:40;;;;;;;;;;;;;;;7.57;75.13;98909.94;5093735;28;20236;-37
2023/03/08 00:47:05;;;;;;;;;;;;;;;7.56;74.47;98910.97;5093635;28;20031;-38
2023/03/08 00:49:30;;;;;;;;;;;;;;;7.46;75.35;98925.63;5093666;28;19961;-36
2023/03/08 00:51:56;;;;;;;;;;;;;;;7.18;75.63;98916.88;5093254;28;20338;-37
2023/03/08 00:54:21;;;;;;;;;;;;;;;6.99;76.51;98915.00;5093346;28;19963;-37
2023/03/08 00:56:46;;;;;;;;;;;;;;;7.18;75.35;98911.56;5093650;28;19912;-37
2023/03/08 00:59:12;;;;;;;;;;;;;;;7.17;76.35;98912.56;5093702;28;19918;-37
2023/03/08 01:01:37;;;;;;;;;;;;;;;7.18;75.84;98913.41;5093242;28;19912;-36
2023/03/08 01:04:02;;;;;;;;;;;;;;;7.22;76.22;98909.34;5093470;28;19912;-37
2023/03/08 01:06:28;;;;;;;;;;;;;;;6.82;76.41;98909.25;5093344;28;19965;-37
2023/03/08 01:08:53;;;;;;;;;;;;;;;7.27;76.88;98912.16;5093424;28;20314;-37
2023/03/08 01:11:27;;;;;;;;;;;;;;;7.47;75.56;98914.03;5093728;28;19930;-37
2023/03/08 01:13:53;;;;;;;;;;;;;;;7.34;75.48;98910.34;5093835;28;19961;-37
2023/03/08 01:16:20;;;;;;;;;;;;;;;7.16;76.07;98905.66;5093756;28;19991;-37
2023/03/08 01:18:45;;;;;;;;;;;;;;;7.01;76.20;98910.31;5093945;28;20305;-35
2023/03/08 01:21:11;;;;;;;;;;;;;;;7.11;76.05;98910.75;5093643;28;20385;-37
2023/03/08 01:23:36;;;;;;;;;;;;;;;7.09;76.13;98906.69;5093303;28;19935;-37
2023/03/08 01:26:05;;;;;;;;;;;;;;;7.17;76.40;98903.81;5093821;28;19981;-36
2023/03/08 01:28:31;;;;;;;;;;;;;;;7.17;77.01;98914.41;5093274;28;20269;-37
2023/03/08 01:31:00;;;;;;;;;;;;;;;6.96;76.99;98907.47;5093429;28;19927;-38
2023/03/08 01:33:25;;;;;;;;;;;;;;;7.12;76.03;98922.13;5093296;28;19912;-37
2023/03/08 01:35:50;;;;;;;;;;;;;;;6.99;76.70;98913.16;5093127;28;20237;-37
2023/03/08 01:38:16;;;;;;;;;;;;;;;7.16;77.34;98916.25;5093158;28;19922;-37
2023/03/08 01:40:41;;;;;;;;;;;;;;;7.18;75.94;98914.22;5093208;28;19982;-37
2023/03/08 01:43:25;;;;;;;;;;;;;;;7.02;76.06;98918.03;5092945;28;19912;-37
2023/03/08 01:46:08;;;;;;;;;;;;;;;7.05;76.89;98915.00;5092973;28;19961;-37
2023/03/08 01:48:36;;;;;;;;;;;;;;;7.10;75.62;98918.88;5092651;28;20299;-37
2023/03/08 01:51:02;;;;;;;;;;;;;;;6.74;77.20;98926.13;5092851;28;19916;-36
2023/03/08 01:53:28;;;;;;;;;;;;;;;6.79;78.02;98926.31;5092727;28;19951;-36
2023/03/08 01:55:54;;;;;;;;;;;;;;;6.61;78.00;98926.06;5092191;28;19913;-38
2023/03/08 01:58:19;;;;;;;;;;;;;;;6.58;78.81;98926.47;5093207;28;20470;-38
2023/03/08 02:00:44;;;;;;;;;;;;;;;6.64;79.15;98929.13;5092900;28;19912;-36
2023/03/08 02:03:10;;;;;;;;;;;;;;;6.77;78.20;98927.53;5092536;28;19918;-37
2023/03/08 02:05:37;;;;;;;;;;;;;;;6.77;77.77;98922.25;5092634;28;19947;-38
2023/03/08 02:08:02;;;;;;;;;;;;;;;6.73;76.88;98927.13;5092708;28;19942;-36
2023/03/08 02:10:28;;;;;;;;;;;;;;;6.61;78.35;98916.31;5092170;28;19916;-38
2023/03/08 02:12:54;;;;;;;;;;;;;;;6.41;79.22;98923.34;5092499;28;19912;-37
2023/03/08 02:15:20;;;;;;;;;;;;;;;6.44;78.96;98917.66;5092433;28;19916;-38
2023/03/08 02:17:45;;;;;;;;;;;;;;;6.65;79.50;98914.09;5092515;28;20334;-38
2023/03/08 02:20:14;;;;;;;;;;;;;;;6.46;78.82;98911.16;5092390;28;19939;-37
2023/03/08 02:22:40;;;;;;;;;;;;;;;6.35;79.93;98913.56;5092194;28;19920;-36
2023/03/08 02:25:15;;;;;;;;;;;;;;;6.42;79.77;98914.41;5092293;28;20337;-36
2023/03/08 02:27:41;;;;;;;;;;;;;;;6.30;78.54;98916.75;5092220;28;19939;-36
2023/03/08 02:30:07;;;;;;;;;;;;;;;6.43;78.72;98914.19;5091974;28;20257;-36
2023/03/08 02:32:32;;;;;;;;;;;;;;;6.59;79.37;98920.97;5092152;28;19912;-37
2023/03/08 02:34:57;;;;;;;;;;;;;;;6.36;79.50;98913.38;5092099;28;20232;-36
2023/03/08 02:37:22;;;;;;;;;;;;;;;6.53;79.04;98926.22;5091995;28;19969;-37
2023/03/08 02:39:48;;;;;;;;;;;;;;;6.81;78.91;98931.41;5092244;28;19912;-37
2023/03/08 02:42:13;;;;;;;;;;;;;;;6.71;77.36;98938.91;5091679;28;20657;-37
2023/03/08 02:44:38;;;;;;;;;;;;;;;6.68;77.95;98941.94;5091901;28;19923;-37
2023/03/08 02:47:04;;;;;;;;;;;;;;;6.68;78.75;98944.59;5091935;28;20384;-36
2023/03/08 02:49:29;;;;;;;;;;;;;;;6.75;77.94;98940.16;5092067;28;19916;-37
2023/03/08 02:51:54;;;;;;;;;;;;;;;6.77;78.03;98938.13;5092152;28;19954;-37
2023/03/08 02:54:19;;;;;;;;;;;;;;;6.73;76.97;98942.19;5091892;28;20311;-37
2023/03/08 02:56:45;;;;;;;;;;;;;;;6.74;78.24;98942.00;5091761;28;19919;-37
2023/03/08 02:59:10;;;;;;;;;;;;;;;6.77;77.78;98944.22;5091893;28;19912;-37
2023/03/08 03:01:36;;;;;;;;;;;;;;;6.66;77.03;98947.44;5091701;28;19912;-37
2023/03/08 03:04:01;;;;;;;;;;;;;;;6.35;78.10;98943.44;5091330;28;20348;-37
2023/03/08 03:06:26;;;;;;;;;;;;;;;6.36;78.62;98945.06;5091422;28;19916;-37
2023/03/08 03:08:51;;;;;;;;;;;;;;;6.54;78.53;98947.19;5090243;28;19939;-37
2023/03/08 03:11:18;;;;;;;;;;;;;;;6.51;78.24;98950.22;5091692;28;20393;-37
2023/03/08 03:13:44;;;;;;;;;;;;;;;6.32;78.14;98953.56;5091696;28;19912;-37
2023/03/08 03:16:11;;;;;;;;;;;;;;;6.03;78.60;98953.59;5091738;28;19913;-37
2023/03/08 03:18:36;;;;;;;;;;;;;;;6.13;80.57;98948.00;5091564;28;19912;-38
2023/03/08 03:21:02;;;;;;;;;;;;;;;6.30;78.31;98952.94;5091992;28;19924;-38
2023/03/08 03:23:28;;;;;;;;;;;;;;;6.50;77.41;98953.88;5091586;28;19997;-37
2023/03/08 03:25:53;;;;;;;;;;;;;;;6.36;77.93;98949.53;5091110;28;20321;-37
2023/03/08 03:28:18;;;;;;;;;;;;;;;6.40;77.69;98954.25;5098682;28;19912;-38
2023/03/08 03:30:43;;;;;;;;;;;;;;;6.28;79.36;98950.50;5091853;28;20003;-37
2023/03/08 03:33:09;;;;;;;;;;;;;;;6.41;78.44;98953.22;5095092;28;19916;-37
2023/03/08 03:35:36;;;;;;;;;;;;;;;6.05;77.33;98956.06;5104589;28;20303;-38
2023/03/08 03:38:01;;;;;;;;;;;;;;;6.11;77.10;98952.66;5095107;28;20323;-38
2023/03/08 03:40:26;;;;;;;;;;;;;;;5.91;77.36;98957.75;5094751;28;20371;-37
2023/03/08 03:42:52;;;;;;;;;;;;;;;5.68;77.91;98960.63;5111917;28;19980;-38
2023/03/08 03:45:17;;;;;;;;;;;;;;;5.77;77.85;98961.28;5094125;28;20007;-37
2023/03/08 03:47:42;;;;;;;;;;;;;;;5.72;76.97;98972.44;5091555;28;19912;-38
2023/03/08 03:50:08;;;;;;;;;;;;;;;5.55;77.88;98977.16;5091428;28;20332;-38
2023/03/08 03:52:33;;;;;;;;;;;;;;;5.31;79.27;98974.91;5091754;28;19923;-38
2023/03/08 03:54:59;;;;;;;;;;;;;;;5.24;79.94;98972.22;5091355;28;19912;-38
2023/03/08 03:57:24;;;;;;;;;;;;;;;5.37;80.81;98971.50;5091621;28;19913;-37
2023/03/08 03:59:49;;;;;;;;;;;;;;;5.64;80.44;98976.03;5091674;28;20405;-37
2023/03/08 04:02:14;;;;;;;;;;;;;;;5.50;78.28;98976.91;5090927;28;19912;-37
2023/03/08 04:04:40;;;;;;;;;;;;;;;5.47;78.74;98978.13;5091211;28;19916;-36
2023/03/08 04:07:05;;;;;;;;;;;;;;;5.29;79.86;98985.66;5091034;28;20676;-36
2023/03/08 04:09:30;;;;;;;;;;;;;;;5.44;79.46;98988.22;5091311;28;19959;-37
2023/03/08 04:11:55;;;;;;;;;;;;;;;5.36;78.81;98985.72;5091330;28;20367;-36
2023/03/08 04:14:21;;;;;;;;;;;;;;;5.26;79.52;98984.22;5090803;28;19919;-38
2023/03/08 04:16:46;;;;;;;;;;;;;;;5.21;80.29;98996.31;5091058;28;19916;-36
2023/03/08 04:19:12;;;;;;;;;;;;;;;5.31;79.57;98999.47;5092266;28;20385;-37
2023/03/08 04:21:37;;;;;;;;;;;;;;;5.45;78.17;99001.25;5094613;28;19912;-37
2023/03/08 04:24:02;;;;;;;;;;;;;;;5.35;77.68;99008.66;5094442;28;20413;-38
2023/03/08 04:26:28;;;;;;;;;;;;;;;5.03;79.48;99008.09;5094553;28;19912;-37
2023/03/08 04:28:53;;;;;;;;;;;;;;;4.92;80.38;99011.22;5094486;28;19919;-37
2023/03/08 04:31:20;;;;;;;;;;;;;;;5.09;83.97;99011.81;5094132;28;19916;-37
2023/03/08 04:33:46;;;;;;;;;;;;;;;5.03;79.96;99013.38;5094102;28;20395;-36
2023/03/08 04:36:12;;;;;;;;;;;;;;;5.12;79.66;99016.72;5094279;28;19919;-37
2023/03/08 04:38:38;;;;;;;;;;;;;;;4.95;79.82;99012.66;5093189;28;19912;-36
2023/03/08 04:41:12;;;;;;;;;;;;;;;4.90;79.79;99011.41;5094274;28;19912;-36
2023/03/08 04:43:48;;;;;;;;;;;;;;;4.92;80.09;99013.84;5094358;28;20057;-36
2023/03/08 04:46:14;;;;;;;;;;;;;;;4.90;80.78;99014.03;5094162;28;19923;-37
2023/03/08 04:48:40;;;;;;;;;;;;;;;4.98;80.20;99015.75;5092962;28;19919;-36
2023/03/08 04:51:06;;;;;;;;;;;;;;;4.89;81.04;99011.56;5093149;28;19917;-36
2023/03/08 04:53:31;;;;;;;;;;;;;;;4.92;80.71;99005.94;5093420;28;20022;-36
2023/03/08 04:56:00;;;;;;;;;;;;;;;5.12;80.05;99010.63;5092915;28;20011;-36
2023/03/08 04:58:26;;;;;;;;;;;;;;;5.23;79.77;99010.16;5092630;28;20296;-37
2023/03/08 05:00:51;;;;;;;;;;;;;;;5.43;77.93;99013.00;5092978;28;19918;-36
2023/03/08 05:03:17;;;;;;;;;;;;;;;5.31;78.38;99019.75;5093246;28;20248;-36
2023/03/08 05:05:50;;;;;;;;;;;;;;;5.36;78.90;99020.84;5093477;28;19912;-36
2023/03/08 05:08:15;;;;;;;;;;;;;;;5.53;78.64;99010.84;5092900;28;19923;-36
2023/03/08 05:10:56;;;;;;;;;;;;;;;5.53;78.89;99012.69;5093436;28;19920;-36
2023/03/08 05:13:22;;;;;;;;;;;;;;;5.82;77.40;99017.00;5093972;28;19912;-37
2023/03/08 05:15:47;;;;;;;;;;;;;;;5.93;77.22;99010.41;5093389;28;20338;-37
2023/03/08 05:18:12;;;;;;;;;;;;;;;6.16;76.20;99021.56;5093435;28;20003;-37
2023/03/08 05:20:38;;;;;;;;;;;;;;;6.30;75.97;99022.47;5093016;28;19912;-36
2023/03/08 05:23:03;;;;;;;;;;;;;;;6.44;75.84;99018.91;5092951;28;19975;-36
2023/03/08 05:25:29;;;;;;;;;;;;;;;6.59;73.67;99025.91;5092976;28;20360;-36
2023/03/08 05:27:55;;;;;;;;;;;;;;;6.97;71.10;99036.88;5092701;28;19913;-36
2023/03/08 05:30:20;;;;;;;;;;;;;;;7.30;70.23;99030.88;5091648;28;19916;-37
2023/03/08 05:32:45;;;;;;;;;;;;;;;7.39;70.80;99037.63;5092604;28;19912;-36
2023/03/08 05:35:10;;;;;;;;;;;;;;;8.27;69.51;99023.41;5092403;28;19912;-36
2023/03/08 05:37:36;;;;;;;;;;;;;;;9.39;65.23;99028.59;5092905;28;20565;-36
2023/03/08 05:40:01;;;;;;;;;;;;;;;10.21;61.75;99033.13;5092566;28;19999;-35
2023/03/08 05:42:29;;;;;;;;;;;;;;;10.69;59.05;99027.13;5092902;28;19923;-36
2023/03/08 05:44:55;;;;;;;;;;;;;;;11.28;59.27;99038.13;5092363;28;19923;-36
2023/03/08 05:47:20;;;;;;;;;;;;;;;11.72;58.98;99036.06;5092214;28;19912;-36
2023/03/08 05:49:45;;;;;;;;;;;;;;;12.35;55.73;99036.53;5091704;28;19970;-36
2023/03/08 05:52:10;;;;;;;;;;;;;;;12.57;53.49;99048.22;5091164;28;19992;-37
2023/03/08 05:54:36;;;;;;;;;;;;;;;12.35;52.68;99056.00;5090659;28;19955;-37
2023/03/08 05:57:01;;;;;;;;;;;;;;;12.76;53.68;99064.94;5090807;28;19920;-38
2023/03/08 05:59:26;;;;;;;;;;;;;;;13.03;51.92;99062.56;5090189;28;19916;-37
2023/03/08 06:01:51;;;;;;;;;;;;;;;13.69;49.73;99060.38;5091136;28;20280;-37
2023/03/08 06:04:17;;;;;;;;;;;;;;;14.00;48.61;99063.56;5091256;28;20016;-37
2023/03/08 06:06:42;;;;;;;;;;;;;;;14.31;48.13;99069.41;5091218;28;19969;-37
2023/03/08 06:09:07;;;;;;;;;;;;;;;14.54;48.46;99070.28;5091506;28;19912;-37
2023/03/08 06:11:33;;;;;;;;;;;;;;;15.02;44.89;99082.19;5091364;28;19916;-37
2023/03/08 06:13:58;;;;;;;;;;;;;;;15.32;44.21;99075.59;5090975;28;19924;-36
2023/03/08 06:16:23;;;;;;;;;;;;;;;15.78;43.79;99086.84;5091451;28;19962;-36
2023/03/08 06:18:48;;;;;;;;;;;;;;;15.56;44.04;99087.66;5091652;28;20352;-36
2023/03/08 06:21:18;;;;;;;;;;;;;;;15.98;42.61;99087.03;5091648;28;19912;-37
2023/03/08 06:23:44;;;;;;;;;;;;;;;16.30;42.73;99083.56;5091263;28;19935;-37
2023/03/08 06:26:10;;;;;;;;;;;;;;;16.67;42.25;99093.47;5091537;28;20236;-36
2023/03/08 06:28:35;;;;;;;;;;;;;;;16.83;41.75;99090.88;5091243;28;20385;-36
2023/03/08 06:31:01;;;;;;;;;;;;;;;17.08;41.79;99087.53;5091180;28;19923;-36
2023/03/08 06:33:27;;;;;;;;;;;;;;;17.51;39.96;99086.34;5091238;28;19981;-36
2023/03/08 06:36:00;;;;;;;;;;;;;;;17.90;38.41;99090.50;5091235;28;20340;-36
2023/03/08 06:38:26;;;;;;;;;;;;;;;18.28;37.51;99096.44;5090754;28;19912;-37
2023/03/08 06:40:51;;;;;;;;;;;;;;;18.60;37.53;99101.53;5090760;28;19978;-36
2023/03/08 06:43:17;;;;;;;;;;;;;;;18.70;36.63;99103.41;5090371;28;19950;-37
2023/03/08 06:45:42;;;;;;;;;;;;;;;19.10;36.44;99115.97;5090403;28;20446;-38
2023/03/08 06:48:07;;;;;;;;;;;;;;;19.10;36.05;99123.28;5090892;28;19956;-36
2023/03/08 06:50:33;;;;;;;;;;;;;;;19.65;35.59;99131.41;5090729;28;20403;-37
2023/03/08 06:52:58;;;;;;;;;;;;;;;19.83;34.60;99128.09;5091039;28;19912;-37
2023/03/08 06:55:23;;;;;;;;;;;;;;;19.22;34.26;99131.06;5090930;28;19947;-36
2023/03/08 06:57:49;;;;;;;;;;;;;;;20.02;34.17;99132.84;5090918;28;19952;-37
2023/03/08 07:00:14;;;;;;;;;;;;;;;20.23;32.88;99139.69;5090903;28;19911;-37
2023/03/08 07:02:39;;;;;;;;;;;;;;;20.33;32.82;99132.59;5090781;28;20011;-37
2023/03/08 07:05:05;;;;;;;;;;;;;;;18.46;35.52;99135.47;5090923;28;19912;-37
2023/03/08 07:07:30;;;;;;;;;;;;;;;18.77;35.46;99141.63;5090870;28;19996;-38
2023/03/08 07:09:56;;;;;;;;;;;;;;;19.29;34.89;99142.38;5090952;28;19913;-36
2023/03/08 07:12:22;;;;;;;;;;;;;;;19.70;33.33;99140.28;5090684;28;19954;-37
2023/03/08 07:14:47;;;;;;;;;;;;;;;19.15;34.60;99142.13;5091119;28;19912;-37
2023/03/08 07:17:12;;;;;;;;;;;;;;;19.89;32.79;99140.44;5090843;28;20007;-36
2023/03/08 07:19:38;;;;;;;;;;;;;;;19.88;33.30;99135.34;5091071;28;19991;-37
2023/03/08 07:22:03;;;;;;;;;;;;;;;20.55;33.22;99148.38;5090609;28;20286;-37
2023/03/08 07:24:28;;;;;;;;;;;;;;;20.72;32.52;99145.28;5090625;28;20357;-37
2023/03/08 07:26:54;;;;;;;;;;;;;;;20.96;31.59;99148.00;5090668;28;19912;-36
2023/03/08 07:29:19;;;;;;;;;;;;;;;20.37;31.51;99139.88;5090624;28;19978;-36
2023/03/08 07:31:44;;;;;;;;;;;;;;;20.60;31.17;99145.63;5090582;28;19916;-36
2023/03/08 07:34:09;;;;;;;;;;;;;;;20.60;31.76;99141.06;5090565;28;20275;-36
2023/03/08 07:36:35;;;;;;;;;;;;;;;20.74;30.58;99143.09;5091015;28;19916;-36
2023/03/08 07:39:00;;;;;;;;;;;;;;;20.48;32.14;99140.56;5090304;28;19977;-36
2023/03/08 07:41:29;;;;;;;;;;;;;;;21.06;31.73;99143.28;5090163;28;19991;-37
2023/03/08 07:43:54;;;;;;;;;;;;;;;21.76;30.53;99147.34;5090482;28;20364;-36
2023/03/08 07:46:19;;;;;;;;;;;;;;;22.23;29.65;99137.44;5089840;28;20006;-35
2023/03/08 07:48:45;;;;;;;;;;;;;;;22.83;28.93;99136.72;5090189;28;20002;-36
2023/03/08 07:51:11;;;;;;;;;;;;;;;22.43;28.99;99138.25;5090074;28;19916;-36
2023/03/08 07:53:36;;;;;;;;;;;;;;;22.16;29.86;99139.72;5089011;28;20020;-36
2023/03/08 07:56:02;;;;;;;;;;;;;;;22.25;29.54;99139.88;5094269;28;20027;-37
2023/03/08 07:58:27;;;;;;;;;;;;;;;22.32;29.16;99136.81;5093993;28;19944;-36
2023/03/08 08:00:53;;;;;;;;;;;;;;;22.59;29.01;99136.06;5093892;28;19931;-35
2023/03/08 08:03:18;;;;;;;;;;;;;;;21.99;29.64;99128.59;5094288;28;20431;-38
2023/03/08 08:05:43;;;;;;;;;;;;;;;22.69;29.10;99129.66;5094203;28;19935;-35
2023/03/08 08:08:12;;;;;;;;;;;;;;;22.30;28.94;99133.59;5094103;28;19920;-36
2023/03/08 08:10:38;;;;;;;;;;;;;;;22.77;29.23;99129.78;5094201;28;20345;-37
2023/03/08 08:13:03;;;;;;;;;;;;;;;23.18;28.36;99120.09;5093726;28;20526;-42
2023/03/08 08:15:29;;;;;;;;;;;;;;;22.83;28.38;99125.06;5094084;28;19912;-41
2023/03/08 08:17:55;;;;;;;;;;;;;;;23.91;27.82;99122.91;5093926;28;19919;-40
2023/03/08 08:20:20;;;;;;;;;;;;;;;24.35;26.78;99129.47;5093632;28;19912;-42
2023/03/08 08:22:45;;;;;;;;;;;;;;;24.24;26.62;99111.78;5093838;28;19997;-43
2023/03/08 08:25:10;;;;;;;;;;;;;;;23.92;27.04;99125.31;5093751;28;19916;-41
2023/03/08 08:27:36;;;;;;;;;;;;;;;24.24;27.19;99126.22;5093411;28;19919;-41
2023/03/08 08:30:03;;;;;;;;;;;;;;;24.87;26.18;99121.63;5093626;28;20391;-43
2023/03/08 08:32:29;;;;;;;;;;;;;;;25.53;25.68;99124.44;5093719;28;19923;-42
2023/03/08 08:34:54;;;;;;;;;;;;;;;25.85;24.96;99130.53;5093612;28;19913;-43
2023/03/08 08:37:19;;;;;;;;;;;;;;;24.92;25.40;99126.94;5093735;28;19912;-42
2023/03/08 08:39:44;;;;;;;;;;;;;;;25.87;25.56;99143.84;5093498;28;20403;-43
2023/03/08 08:42:10;;;;;;;;;;;;;;;26.44;24.35;99143.66;5093276;28;20438;-43
2023/03/08 08:44:35;;;;;;;;;;;;;;;26.59;24.36;99133.38;5092462;28;19919;-43
2023/03/08 08:47:00;;;;;;;;;;;;;;;26.44;23.94;99140.94;5093050;28;19916;-43
2023/03/08 08:49:25;;;;;;;;;;;;;;;25.76;25.43;99137.91;5091765;28;19919;-43
2023/03/08 08:51:52;;;;;;;;;;;;;;;26.49;24.22;99138.06;5092949;28;19916;-42
2023/03/08 08:54:17;;;;;;;;;;;;;;;26.41;23.73;99141.59;5092937;28;19923;-42
2023/03/08 08:56:43;;;;;;;;;;;;;;;25.87;24.93;99135.66;5092979;28;20280;-41
2023/03/08 08:59:09;;;;;;;;;;;;;;;26.16;24.59;99135.06;5092663;28;20007;-42
2023/03/08 09:01:35;;;;;;;;;;;;;;;26.45;23.92;99126.19;5091031;28;19943;-41
2023/03/08 09:04:01;;;;;;;;;;;;;;;26.62;24.05;99127.31;5092982;28;20014;-41
2023/03/08 09:06:27;;;;;;;;;;;;;;;25.96;24.28;99130.25;5092695;28;19966;-42
2023/03/08 09:08:54;;;;;;;;;;;;;;;26.37;24.09;99129.75;5092519;28;19919;-42
2023/03/08 09:11:19;;;;;;;;;;;;;;;26.70;23.13;99110.91;5092652;28;20328;-42
2023/03/08 09:13:45;;;;;;;;;;;;;;;27.06;23.46;99106.91;5092824;28;20007;-43
2023/03/08 09:16:23;;;;;;;;;;;;;;;26.09;23.82;99112.94;5092277;28;20003;-43
2023/03/08 09:18:49;;;;;;;;;;;;;;;26.68;23.32;99101.47;5092498;28;19912;-42
2023/03/08 09:21:15;;;;;;;;;;;;;;;26.88;23.61;99087.09;5092452;28;19922;-41
2023/03/08 09:23:40;;;;;;;;;;;;;;;26.68;23.85;99091.34;5092093;28;19924;-43
2023/03/08 09:26:06;;;;;;;;;;;;;;;26.27;23.84;99083.72;5092732;28;20350;-42
2023/03/08 09:28:31;;;;;;;;;;;;;;;26.60;23.59;99081.25;5092422;28;19923;-42
2023/03/08 09:30:56;;;;;;;;;;;;;;;26.83;23.65;99084.53;5092169;28;19988;-43
2023/03/08 09:33:22;;;;;;;;;;;;;;;27.21;23.26;99091.91;5091739;28;20395;-43
2023/03/08 09:35:59;;;;;;;;;;;;;;;27.66;22.59;99085.03;5091726;28;19927;-43
2023/03/08 09:38:25;;;;;;;;;;;;;;;27.53;22.25;99086.09;5092147;28;19961;-41
2023/03/08 09:41:05;;;;;;;;;;;;;;;27.59;22.24;99088.31;5092220;28;19911;-42
2023/03/08 09:43:51;;;;;;;;;;;;;;;27.78;22.31;99087.03;5091891;28;19912;-43
2023/03/08 09:46:21;;;;;;;;;;;;;;;28.07;21.44;99089.69;5080202;28;19950;-43
2023/03/08 09:48:48;;;;;;;;;;;;;;;27.93;21.38;99082.91;5092009;28;19948;-42
2023/03/08 09:51:15;;;;;;;;;;;;;;;27.59;21.65;99092.97;5091404;28;20431;-42
2023/03/08 09:53:49;;;;;;;;;;;;;;;27.72;21.61;99080.97;5091516;28;19912;-43
2023/03/08 09:56:23;;;;;;;;;;;;;;;26.87;22.55;99079.22;5091646;28;20367;-41
2023/03/08 09:58:48;;;;;;;;;;;;;;;26.76;22.91;99089.69;5091703;28;19919;-42
2023/03/08 10:01:32;;;;;;;;;;;;;;;26.22;23.36;99081.19;5091516;28;19916;-42
2023/03/08 10:04:03;;;;;;;;;;;;;;;26.46;23.57;99081.41;5091679;28;19912;-41
2023/03/08 10:06:35;;;;;;;;;;;;;;;26.03;23.40;99076.88;5091709;28;19919;-42
2023/03/08 10:09:12;;;;;;;;;;;;;;;24.84;24.70;99078.72;5090215;28;20410;-44
2023/03/08 10:11:47;;;;;;;;;;;;;;;25.22;24.23;99077.38;5091306;28;19920;-42
2023/03/08 10:14:19;;;;;;;;;;;;;;;25.85;23.70;99069.78;5091297;28;19911;-42
2023/03/08 10:16:46;;;;;;;;;;;;;;;25.83;24.83;99066.59;5090782;28;19935;-43
2023/03/08 10:19:24;;;;;;;;;;;;;;;26.68;22.43;99069.50;5091042;28;20418;-42
2023/03/08 10:21:50;;;;;;;;;;;;;;;27.07;21.99;99070.31;5091177;28;19916;-43
2023/03/08 10:24:25;;;;;;;;;;;;;;;26.68;22.26;99068.72;5091711;28;19920;-42
2023/03/08 10:26:51;;;;;;;;;;;;;;;26.30;22.71;99058.53;5090895;28;20304;-42
2023/03/08 10:29:16;;;;;;;;;;;;;;;26.06;23.03;99059.06;5091157;28;19912;-43
2023/03/08 10:31:43;;;;;;;;;;;;;;;26.23;21.55;99058.22;5090863;28;20303;-42
2023/03/08 10:34:11;;;;;;;;;;;;;;;25.13;22.43;99061.03;5090796;28;19981;-42
2023/03/08 10:36:46;;;;;;;;;;;;;;;24.38;22.60;99050.78;5090823;28;19912;-42
2023/03/08 10:39:12;;;;;;;;;;;;;;;24.59;23.14;99042.94;5090961;28;19977;-42
2023/03/08 10:41:46;;;;;;;;;;;;;;;25.27;22.15;99039.97;5090721;28;19923;-42
2023/03/08 10:44:26;;;;;;;;;;;;;;;24.75;23.15;99037.88;5090556;28;19916;-42
2023/03/08 10:46:51;;;;;;;;;;;;;;;25.06;21.58;99034.28;5090728;28;20376;-42
2023/03/08 10:49:17;;;;;;;;;;;;;;;24.63;22.23;99039.59;5090990;28;19912;-42
2023/03/08 10:52:12;;;;;;;;;;;;;;;24.98;21.92;99025.00;5090488;28;19923;-42
2023/03/08 10:54:37;;;;;;;;;;;;;;;25.63;21.57;99025.25;5081083;28;19977;-42
2023/03/08 10:57:03;;;;;;;;;;;;;;;25.75;20.60;99009.03;5090345;28;19912;-42
2023/03/08 10:59:31;;;;;;;;;;;;;;;25.41;21.31;99012.56;5090470;28;20002;-42
2023/03/08 11:01:58;;;;;;;;;;;;;;;25.76;21.21;99004.41;5090669;28;19988;-42
2023/03/08 11:04:24;;;;;;;;;;;;;;;26.18;21.10;99006.59;5090155;28;19919;-42
2023/03/08 11:06:50;;;;;;;;;;;;;;;26.64;19.94;98996.84;5090562;28;19912;-43
2023/03/08 11:09:18;;;;;;;;;;;;;;;26.79;19.97;98999.00;5090162;28;20371;-43
2023/03/08 11:11:43;;;;;;;;;;;;;;;26.51;21.19;98995.88;5090263;28;19917;-42
2023/03/08 11:14:10;;;;;;;;;;;;;;;25.88;20.34;98988.19;5089545;28;19919;-42
2023/03/08 11:16:54;;;;;;;;;;;;;;;25.25;21.25;98982.31;5090442;28;20010;-41
2023/03/08 11:19:28;;;;;;;;;;;;;;;25.91;20.07;98982.13;5090345;28;19912;-43
2023/03/08 11:22:01;;;;;;;;;;;;;;;26.39;19.85;98974.75;5089991;28;20068;-41
2023/03/08 11:24:30;;;;;;;;;;;;;;;26.31;20.36;98978.31;5089945;28;19916;-43
2023/03/08 11:27:31;;;;;;;;;;;;;;;26.63;20.02;98974.19;5090216;28;20252;-42
2023/03/08 11:30:11;;;;;;;;;;;;;;;25.71;20.31;98958.25;5070578;28;20403;-41
2023/03/08 11:32:37;;;;;;;;;;;;;;;26.29;19.63;98959.56;5091759;28;19927;-42
2023/03/08 11:35:06;;;;;;;;;;;;;;;25.54;19.91;98956.34;5094431;28;19916;-43
2023/03/08 11:37:47;;;;;;;;;;;;;;;25.90;19.84;98955.16;5094178;28;20011;-43
2023/03/08 11:40:25;;;;;;;;;;;;;;;24.75;20.80;98956.28;5093970;28;19912;-42
2023/03/08 11:42:53;;;;;;;;;;;;;;;24.14;21.23;98960.66;5094659;28;19912;-41
2023/03/08 11:45:32;;;;;;;;;;;;;;;23.73;21.42;98938.03;5094364;28;20002;-42
2023/03/08 11:47:57;;;;;;;;;;;;;;;23.95;21.49;98950.81;5094172;28;19923;-43
2023/03/08 11:50:30;;;;;;;;;;;;;;;23.45;21.99;98944.72;5093885;28;19920;-41
2023/03/08 11:53:12;;;;;;;;;;;;;;;23.92;21.97;98937.84;5094207;28;19920;-43
2023/03/08 11:55:56;;;;;;;;;;;;;;;24.13;21.62;98938.13;5093987;28;20007;-42
2023/03/08 11:58:23;;;;;;;;;;;;;;;23.91;22.27;98935.44;5093491;28;20007;-41
2023/03/08 12:00:50;;;;;;;;;;;;;;;25.00;21.18;98931.31;5093572;28;19916;-41
2023/03/08 12:03:18;;;;;;;;;;;;;;;25.99;20.94;98936.91;5093545;28;19927;-42
2023/03/08 12:05:50;;;;;;;;;;;;;;;25.82;20.08;98924.09;5094470;28;20015;-43
2023/03/08 12:08:30;;;;;;;;;;;;;;;25.22;19.88;98928.47;5093395;28;19955;-43
2023/03/08 12:11:24;;;;;;;;;;;;;;;24.57;20.91;98930.16;5093020;28;19920;-42
2023/03/08 12:13:56;;;;;;;;;;;;;;;24.93;20.84;98924.44;5084116;28;20386;-43
2023/03/08 12:16:27;;;;;;;;;;;;;;;24.93;21.35;98913.56;5091182;28;19951;-43
2023/03/08 12:19:28;;;;;;;;;;;;;;;25.22;20.54;98911.34;5094167;28;19973;-42
2023/03/08 12:21:59;;;;;;;;;;;;;;;23.77;21.11;98917.28;5070619;28;19916;-43
2023/03/08 12:24:31;;;;;;;;;;;;;;;23.49;21.64;98913.09;5087991;28;20015;-43
2023/03/08 12:27:17;;;;;;;;;;;;;;;23.39;22.16;98906.81;5089938;28;19962;-43
2023/03/08 12:29:49;;;;;;;;;;;;;;;23.42;22.31;98908.13;5090576;28;19962;-43
2023/03/08 12:32:16;;;;;;;;;;;;;;;23.53;22.13;98914.91;5089212;28;19923;-41
2023/03/08 12:34:42;;;;;;;;;;;;;;;23.81;22.22;98915.56;5091703;28;19912;-42
2023/03/08 12:37:24;;;;;;;;;;;;;;;24.65;21.35;98907.59;5092009;28;20005;-41
2023/03/08 12:40:13;;;;;;;;;;;;;;;25.09;20.57;98904.91;5091299;28;19912;-43
2023/03/08 12:42:39;;;;;;;;;;;;;;;24.84;21.05;98909.22;5071867;28;20019;-36
2023/03/08 12:45:26;;;;;;;;;;;;;;;24.55;21.49;98900.53;5092173;28;19967;-37
2023/03/08 12:48:04;;;;;;;;;;;;;;;24.73;21.24;98909.56;5092211;28;19912;-37
2023/03/08 12:50:31;;;;;;;;;;;;;;;24.47;21.60;98895.06;5091384;28;19916;-35
2023/03/08 12:52:57;;;;;;;;;;;;;;;24.48;21.34;98905.59;5091609;28;19912;-37